Time;durP1;ratioP1;P1;durP2;ratioP2;P2;SDS_P1;SDS_P2;PMS_P1;PMS_P2;Temp;Humidity;BMP_temperature;BMP_pressure;BME280_temperature;BME280_humidity;BME280_pressure;Samples;Min_cycle;Max_cycle;Signal;HPM_P1;HPM_P2
2022/09/04 12:55:08;;;;;;;5.18;2.00;;;;;;;;;;5027370;27;86925;-73
2022/09/04 12:57:54;;;;;;;3.85;2.08;;;;;;;;;;5021974;28;88564;-73
2022/09/04 13:00:22;;;;;;;4.70;1.60;;;;;;;;;;5015530;28;87466;-73
2022/09/04 13:02:48;;;;;;;6.57;2.10;;;;;;;;;;5015675;28;87327;-73
2022/09/04 13:05:31;;;;;;;3.90;1.92;;;;;;;;;;5015448;28;87788;-73
2022/09/04 13:08:16;;;;;;;4.18;1.80;;;;;;;;;;5012774;28;89656;-73
2022/09/04 13:11:01;;;;;;;3.60;2.10;;;;;;;;;;5014780;28;90664;-73
2022/09/04 13:13:28;;;;;;;2.90;1.70;;;;;;;;;;5032839;28;88924;-73
2022/09/04 13:16:00;;;;;;;5.50;1.63;;;;;;;;;;5024826;28;87495;-73
2022/09/04 13:18:33;;;;;;;6.40;1.55;;;;;;;;;;5013528;28;87505;-74
2022/09/04 13:21:07;;;;;;;4.20;1.48;;;;;;;;;;5014140;28;87115;-74
2022/09/04 13:23:34;;;;;;;2.80;1.50;;;;;;;;;;5014956;28;87289;-74
2022/09/04 13:26:19;;;;;;;1.67;1.50;;;;;;;;;;5014055;28;87932;-74
2022/09/04 13:29:06;;;;;;;3.40;1.58;;;;;;;;;;5013282;28;86994;-74
2022/09/04 13:31:51;;;;;;;5.30;1.40;;;;;;;;;;5015194;28;87185;-74
2022/09/04 13:34:25;;;;;;;3.28;1.40;;;;;;;;;;5005538;28;88206;-74
2022/09/04 13:37:02;;;;;;;10.50;1.52;;;;;;;;;;4999711;28;87197;-74
2022/09/04 13:39:48;;;;;;;2.95;1.40;;;;;;;;;;5006617;28;90597;-74
2022/09/04 13:42:22;;;;;;;3.50;1.70;;;;;;;;;;5006306;28;87729;-74
2022/09/04 13:45:08;;;;;;;2.42;1.65;;;;;;;;;;5013627;28;87181;-74
2022/09/04 13:47:43;;;;;;;2.50;1.70;;;;;;;;;;5007544;28;87809;-74
2022/09/04 13:50:16;;;;;;;2.38;1.58;;;;;;;;;;5023294;28;87195;-74
2022/09/04 13:53:04;;;;;;;4.10;1.63;;;;;;;;;;5034733;28;88231;-74
2022/09/04 13:55:49;;;;;;;2.90;1.88;;;;;;;;;;5034702;27;87998;-74
2022/09/04 13:58:18;;;;;;;2.05;1.45;;;;;;;;;;5012033;27;87257;-74
2022/09/04 14:00:52;;;;;;;2.80;1.70;;;;;;;;;;4994649;28;87364;-74
2022/09/04 14:03:37;;;;;;;2.95;1.70;;;;;;;;;;5014235;28;87855;-74
2022/09/04 14:06:06;;;;;;;5.93;1.80;;;;;;;;;;5000837;28;87460;-74
2022/09/04 14:08:34;;;;;;;1.63;1.52;;;;;;;;;;5001251;28;86845;-74
2022/09/04 14:11:19;;;;;;;5.55;2.03;;;;;;;;;;5000999;28;87108;-74
2022/09/04 14:13:46;;;;;;;5.60;1.60;;;;;;;;;;5014727;28;87394;-74
2022/09/04 14:16:13;;;;;;;4.30;1.70;;;;;;;;;;5010407;28;89503;-74
2022/09/04 14:18:48;;;;;;;4.78;1.60;;;;;;;;;;5019510;28;87595;-73
2022/09/04 14:21:32;;;;;;;2.33;1.50;;;;;;;;;;5020567;28;87324;-74
2022/09/04 14:24:06;;;;;;;2.88;1.63;;;;;;;;;;4999468;28;88119;-74
2022/09/04 14:26:54;;;;;;;4.38;1.75;;;;;;;;;;5001116;28;87702;-74
2022/09/04 14:29:24;;;;;;;3.72;1.52;;;;;;;;;;5013608;28;88173;-73
2022/09/04 14:31:51;;;;;;;;;;;;;;;;;;4981116;28;86685;-74
2022/09/04 14:34:19;;;;;;;4.57;1.50;;;;;;;;;;4981514;28;118911;-73
2022/09/04 14:36:59;;;;;;;5.82;1.63;;;;;;;;;;4995578;28;88723;-73
2022/09/04 14:39:29;;;;;;;2.22;1.52;;;;;;;;;;5000182;28;87170;-73
2022/09/04 14:42:04;;;;;;;3.13;1.40;;;;;;;;;;4988608;28;86823;-73
2022/09/04 14:44:53;;;;;;;3.13;1.50;;;;;;;;;;4982448;28;88708;-73
2022/09/04 14:47:37;;;;;;;4.20;1.70;;;;;;;;;;4998593;28;88687;-73
2022/09/04 14:50:08;;;;;;;2.72;1.65;;;;;;;;;;5013728;28;88048;-73
2022/09/04 14:52:40;;;;;;;5.90;1.55;;;;;;;;;;5000523;28;87509;-73
2022/09/04 14:55:12;;;;;;;6.82;1.52;;;;;;;;;;4979429;28;87941;-73
2022/09/04 14:57:42;;;;;;;2.75;1.63;;;;;;;;;;4993921;28;87880;-73
2022/09/04 15:00:13;;;;;;;1.60;1.45;;;;;;;;;;4999725;28;87584;-73
2022/09/04 15:02:42;;;;;;;9.77;2.20;;;;;;;;;;4979925;28;87832;-73
2022/09/04 15:05:15;;;;;;;5.85;1.98;;;;;;;;;;4999267;28;86871;-73
2022/09/04 15:07:41;;;;;;;15.02;1.88;;;;;;;;;;4996085;28;87892;-73
2022/09/04 15:10:11;;;;;;;2.53;1.90;;;;;;;;;;4998587;28;88412;-73
2022/09/04 15:12:39;;;;;;;3.20;2.03;;;;;;;;;;5002034;28;87226;-73
2022/09/04 15:15:18;;;;;;;6.07;1.88;;;;;;;;;;4996402;28;87466;-73
2022/09/04 15:17:52;;;;;;;5.20;1.70;;;;;;;;;;4997084;28;87577;-73
2022/09/04 15:20:21;;;;;;;4.97;2.00;;;;;;;;;;4996748;28;87437;-76
2022/09/04 15:23:05;;;;;;;7.60;2.10;;;;;;;;;;4998407;28;89095;-78
2022/09/04 15:25:51;;;;;;;4.60;2.03;;;;;;;;;;4979989;28;87916;-75
2022/09/04 15:28:51;;;;;;;3.30;1.77;;;;;;;;;;4987362;28;87914;-73
2022/09/04 15:31:37;;;;;;;4.18;2.15;;;;;;;;;;4996644;28;87463;-74
2022/09/04 15:34:05;;;;;;;3.40;2.10;;;;;;;;;;4999981;28;88072;-72
2022/09/04 15:36:34;;;;;;;2.80;1.67;;;;;;;;;;4992915;28;87457;-73
2022/09/04 15:39:03;;;;;;;4.70;1.80;;;;;;;;;;4995057;28;87637;-75
2022/09/04 15:41:43;;;;;;;7.47;1.75;;;;;;;;;;5009284;28;87033;-73
2022/09/04 15:44:32;;;;;;;6.63;1.88;;;;;;;;;;4997790;28;86996;-74
2022/09/04 15:47:04;;;;;;;8.68;2.78;;;;;;;;;;4995001;28;89062;-72
2022/09/04 15:49:49;;;;;;;4.55;2.20;;;;;;;;;;5000049;28;87530;-74
2022/09/04 15:52:27;;;;;;;5.45;2.35;;;;;;;;;;4995423;28;88713;-72
2022/09/04 15:55:07;;;;;;;8.55;2.83;;;;;;;;;;5007989;28;88251;-73
2022/09/04 15:57:54;;;;;;;3.85;2.17;;;;;;;;;;5014727;28;87121;-67
2022/09/04 16:00:23;;;;;;;8.88;2.00;;;;;;;;;;4998041;28;87746;-70
2022/09/04 16:03:00;;;;;;;3.00;1.70;;;;;;;;;;5007305;28;87374;-69
2022/09/04 16:05:36;;;;;;;9.32;2.20;;;;;;;;;;5018798;28;87498;-68
2022/09/04 16:08:19;;;;;;;6.00;2.90;;;;;;;;;;5001619;28;87674;-68
2022/09/04 16:10:57;;;;;;;4.40;2.13;;;;;;;;;;5000350;28;86990;-68
2022/09/04 16:13:24;;;;;;;4.30;2.13;;;;;;;;;;5015279;28;86846;-68
2022/09/04 16:15:59;;;;;;;3.53;1.98;;;;;;;;;;5007606;28;87853;-68
2022/09/04 16:18:49;;;;;;;2.05;1.60;;;;;;;;;;4999002;28;87522;-68
2022/09/04 16:21:25;;;;;;;3.33;1.90;;;;;;;;;;5001851;28;86740;-68
2022/09/04 16:23:58;;;;;;;4.93;2.10;;;;;;;;;;4981284;28;88111;-68
2022/09/04 16:26:27;;;;;;;3.28;1.60;;;;;;;;;;4978877;28;87659;-68
2022/09/04 16:29:05;;;;;;;4.38;1.70;;;;;;;;;;5013917;28;88293;-67
2022/09/04 16:31:33;;;;;;;7.32;1.60;;;;;;;;;;5019021;28;87719;-69
2022/09/04 16:34:04;;;;;;;2.25;1.45;;;;;;;;;;5011344;28;87801;-66
2022/09/04 16:36:44;;;;;;;2.22;1.38;;;;;;;;;;4999157;28;88169;-67
2022/09/04 16:39:13;;;;;;;;;;;;;;;;;;4999380;28;87408;-67
2022/09/04 16:41:45;;;;;;;36.20;14.48;;;;;;;;;;4997457;28;118003;-66
2022/09/04 16:44:15;;;;;;;9.82;4.43;;;;;;;;;;5006608;28;90634;-66
2022/09/04 16:47:01;;;;;;;19.60;9.18;;;;;;;;;;4996554;28;86819;-67
2022/09/04 16:49:45;;;;;;;3.70;1.40;;;;;;;;;;4998943;28;90109;-66
2022/09/04 16:52:21;;;;;;;8.88;1.48;;;;;;;;;;4996325;28;87355;-69
2022/09/04 16:54:52;;;;;;;4.20;1.38;;;;;;;;;;4998566;28;87346;-66
2022/09/04 16:57:20;;;;;;;7.28;2.17;;;;;;;;;;4997854;28;87161;-66
2022/09/04 16:59:48;;;;;;;3.15;1.48;;;;;;;;;;5010817;28;87381;-66
2022/09/04 17:02:21;;;;;;;4.78;1.70;;;;;;;;;;5004666;28;87768;-69
2022/09/04 17:05:06;;;;;;;31.00;2.50;;;;;;;;;;4996492;28;88128;-65
2022/09/04 17:07:35;;;;;;;13.55;1.80;;;;;;;;;;4998829;28;87110;-67
2022/09/04 17:10:08;;;;;;;3.53;2.75;;;;;;;;;;5005869;28;87124;-66
2022/09/04 17:12:43;;;;;;;10.48;5.90;;;;;;;;;;5015923;28;88420;-66
2022/09/04 17:15:22;;;;;;;8.73;6.70;;;;;;;;;;5011036;28;90364;-66
2022/09/04 17:17:49;;;;;;;7.78;1.75;;;;;;;;;;4995269;28;88207;-66
2022/09/04 17:20:24;;;;;;;7.78;1.38;;;;;;;;;;4980043;28;88125;-66
2022/09/04 17:23:30;;;;;;;3.28;1.42;;;;;;;;;;4977667;28;89034;-66
2022/09/04 17:26:18;;;;;;;8.13;2.17;;;;;;;;;;4983724;28;90213;-66
2022/09/04 17:29:09;;;;;;;5.20;3.95;;;;;;;;;;4997953;28;89120;-66
2022/09/04 17:31:57;;;;;;;13.88;11.70;;;;;;;;;;4987225;28;90371;-66
2022/09/04 17:34:30;;;;;;;9.52;4.72;;;;;;;;;;4976686;28;90904;-66
2022/09/04 17:37:27;;;;;;;4.47;1.55;;;;;;;;;;4976978;28;88602;-66
2022/09/04 17:40:34;;;;;;;2.92;1.60;;;;;;;;;;4978289;28;90348;-67
2022/09/04 17:43:36;;;;;;;2.03;1.20;;;;;;;;;;4979254;28;87997;-67
2022/09/04 17:46:19;;;;;;;8.35;1.58;;;;;;;;;;4990628;28;88244;-66
2022/09/04 17:48:45;;;;;;;2.83;1.13;;;;;;;;;;4999364;28;88368;-66
2022/09/04 17:51:16;;;;;;;11.73;1.90;;;;;;;;;;4995443;28;88974;-65
2022/09/04 17:53:46;;;;;;;7.05;1.45;;;;;;;;;;4998321;28;89910;-66
2022/09/04 17:56:18;;;;;;;10.80;2.00;;;;;;;;;;4999432;28;89559;-64
2022/09/04 17:58:48;;;;;;;9.07;1.73;;;;;;;;;;5008175;28;88955;-64
2022/09/04 18:01:23;;;;;;;11.25;2.00;;;;;;;;;;5008759;28;88040;-64
2022/09/04 18:03:50;;;;;;;4.95;1.67;;;;;;;;;;5011518;28;89805;-63
2022/09/04 18:06:43;;;;;;;3.92;1.48;;;;;;;;;;4994207;28;88694;-66
2022/09/04 18:09:21;;;;;;;12.68;1.63;;;;;;;;;;4996959;28;88195;-66
2022/09/04 18:11:59;;;;;;;2.40;1.30;;;;;;;;;;5001752;28;88941;-66
2022/09/04 18:14:33;;;;;;;9.57;1.60;;;;;;;;;;4988904;28;89439;-64
2022/09/04 18:17:02;;;;;;;11.35;1.70;;;;;;;;;;5003549;28;88338;-63
2022/09/04 18:19:38;;;;;;;18.77;1.75;;;;;;;;;;5004569;28;89733;-64
2022/09/04 18:22:26;;;;;;;10.27;1.75;;;;;;;;;;5002161;28;87943;-64
2022/09/04 18:25:22;;;;;;;12.50;1.80;;;;;;;;;;4985479;28;89118;-64
2022/09/04 18:27:54;;;;;;;13.07;2.07;;;;;;;;;;4997376;28;90018;-65
2022/09/04 18:31:03;;;;;;;27.70;1.97;;;;;;;;;;4999878;28;88272;-64
2022/09/04 18:34:03;;;;;;;14.30;1.80;;;;;;;;;;5004245;28;89198;-64
2022/09/04 18:36:58;;;;;;;4.90;1.55;;;;;;;;;;4998396;28;87995;-64
2022/09/04 18:39:48;;;;;;;23.23;2.25;;;;;;;;;;5003481;28;87396;-65
2022/09/04 18:42:21;;;;;;;10.27;1.55;;;;;;;;;;5000647;28;88517;-65
2022/09/04 18:45:08;;;;;;;5.68;1.35;;;;;;;;;;4981752;28;88021;-75
2022/09/04 18:47:55;;;;;;;8.63;1.90;;;;;;;;;;4986712;28;90677;-74
2022/09/04 18:50:48;;;;;;;13.27;1.70;;;;;;;;;;4989575;28;88649;-74
2022/09/04 18:53:34;;;;;;;14.35;2.08;;;;;;;;;;4992295;28;88164;-74
2022/09/04 18:56:21;;;;;;;14.85;1.85;;;;;;;;;;4992151;28;88798;-74
2022/09/04 18:58:53;;;;;;;5.38;1.35;;;;;;;;;;4999517;28;91622;-74
2022/09/04 19:01:24;;;;;;;7.80;1.80;;;;;;;;;;4999213;28;87969;-74
2022/09/04 19:04:01;;;;;;;13.02;1.70;;;;;;;;;;5011961;28;88785;-74
2022/09/04 19:06:56;;;;;;;4.57;1.50;;;;;;;;;;5003627;28;88835;-74
2022/09/04 19:09:55;;;;;;;8.52;1.30;;;;;;;;;;4989602;28;87972;-74
2022/09/04 19:12:24;;;;;;;10.47;1.60;;;;;;;;;;4980359;28;91787;-75
2022/09/04 19:15:01;;;;;;;5.35;1.65;;;;;;;;;;4994410;28;90024;-75
2022/09/04 19:17:33;;;;;;;7.75;1.50;;;;;;;;;;4998616;28;89679;-74
2022/09/04 19:20:03;;;;;;;6.43;1.70;;;;;;;;;;5011482;28;90367;-74
2022/09/04 19:22:31;;;;;;;7.57;1.38;;;;;;;;;;5001647;28;89115;-75
2022/09/04 19:25:12;;;;;;;3.42;1.55;;;;;;;;;;4998158;28;89392;-75
2022/09/04 19:27:38;;;;;;;4.50;1.88;;;;;;;;;;5011003;28;88737;-75
2022/09/04 19:30:04;;;;;;;12.40;1.90;;;;;;;;;;5012006;28;88004;-74
2022/09/04 19:32:51;;;;;;;9.82;1.73;;;;;;;;;;4998115;28;88745;-74
2022/09/04 19:35:20;;;;;;;13.27;1.70;;;;;;;;;;4995961;28;88443;-75
2022/09/04 19:37:51;;;;;;;9.65;2.05;;;;;;;;;;5009447;28;88563;-75
2022/09/04 19:40:58;;;;;;;8.23;1.80;;;;;;;;;;5007894;28;89624;-76
2022/09/04 19:43:47;;;;;;;4.28;1.30;;;;;;;;;;4984954;28;88095;-75
2022/09/04 19:46:33;;;;;;;8.73;1.60;;;;;;;;;;4995960;28;92099;-75
2022/09/04 19:49:15;;;;;;;7.22;1.90;;;;;;;;;;4998768;28;88336;-75
2022/09/04 19:52:06;;;;;;;7.40;1.88;;;;;;;;;;5001620;28;88112;-75
2022/09/04 19:55:01;;;;;;;3.35;1.60;;;;;;;;;;5007668;28;88528;-75
2022/09/04 19:58:04;;;;;;;6.85;1.80;;;;;;;;;;4997202;28;89024;-75
2022/09/04 20:00:35;;;;;;;6.38;1.65;;;;;;;;;;4996455;28;88673;-75
2022/09/04 20:03:20;;;;;;;3.47;1.63;;;;;;;;;;4987800;28;89004;-75
2022/09/04 20:06:29;;;;;;;4.18;1.75;;;;;;;;;;5000677;28;88351;-75
2022/09/04 20:09:06;;;;;;;6.05;1.92;;;;;;;;;;4969237;28;89184;-75
2022/09/04 20:11:36;;;;;;;8.07;1.67;;;;;;;;;;5000323;28;90303;-75
2022/09/04 20:14:18;;;;;;;5.68;2.00;;;;;;;;;;4998623;28;88532;-75
2022/09/04 20:16:50;;;;;;;4.18;1.90;;;;;;;;;;4997179;28;88634;-75
2022/09/04 20:19:25;;;;;;;4.43;1.63;;;;;;;;;;4996162;28;88461;-75
2022/09/04 20:22:03;;;;;;;3.35;2.00;;;;;;;;;;5010348;28;88784;-75
2022/09/04 20:24:38;;;;;;;6.55;1.85;;;;;;;;;;5008083;28;88074;-75
2022/09/04 20:27:08;;;;;;;3.42;1.80;;;;;;;;;;4994838;28;87686;-75
2022/09/04 20:29:34;;;;;;;8.60;1.97;;;;;;;;;;4996946;28;89682;-75
2022/09/04 20:32:10;;;;;;;4.43;1.85;;;;;;;;;;4994915;28;89386;-75
2022/09/04 20:34:55;;;;;;;5.82;1.60;;;;;;;;;;4996301;28;88778;-75
2022/09/04 20:37:42;;;;;;;8.27;1.70;;;;;;;;;;4997868;28;90000;-75
2022/09/04 20:40:27;;;;;;;5.68;1.58;;;;;;;;;;5000683;28;89050;-75
2022/09/04 20:43:02;;;;;;;3.88;1.70;;;;;;;;;;4996193;28;88701;-75
2022/09/04 20:45:37;;;;;;;7.72;2.45;;;;;;;;;;4993820;28;89054;-75
2022/09/04 20:48:28;;;;;;;7.50;2.13;;;;;;;;;;5014285;28;88068;-74
2022/09/04 20:51:17;;;;;;;8.57;1.85;;;;;;;;;;4978069;28;88416;-75
2022/09/04 20:54:26;;;;;;;11.63;3.20;;;;;;;;;;4977821;28;88212;-75
2022/09/04 20:57:00;;;;;;;2.45;1.95;;;;;;;;;;4975287;28;88061;-75
2022/09/04 21:00:02;;;;;;;4.75;2.20;;;;;;;;;;4999004;28;88405;-75
2022/09/04 21:03:11;;;;;;;3.88;2.05;;;;;;;;;;5010272;28;89469;-75
2022/09/04 21:05:57;;;;;;;6.35;1.95;;;;;;;;;;4999004;28;88066;-75
2022/09/04 21:08:51;;;;;;;6.72;2.10;;;;;;;;;;4997723;28;90063;-75
2022/09/04 21:11:26;;;;;;;3.50;1.90;;;;;;;;;;4996451;28;88642;-75
2022/09/04 21:14:12;;;;;;;6.93;2.30;;;;;;;;;;4995109;28;88888;-75
2022/09/04 21:16:47;;;;;;;9.57;2.85;;;;;;;;;;4998628;28;89109;-75
2022/09/04 21:19:16;;;;;;;5.88;2.25;;;;;;;;;;5000892;28;87984;-75
2022/09/04 21:22:00;;;;;;;8.77;2.63;;;;;;;;;;5001151;28;89097;-75
2022/09/04 21:24:33;;;;;;;7.28;2.15;;;;;;;;;;4995482;28;88213;-75
2022/09/04 21:27:06;;;;;;;6.78;2.35;;;;;;;;;;4999397;28;87867;-75
2022/09/04 21:29:35;;;;;;;14.68;2.33;;;;;;;;;;5005336;28;90377;-75
2022/09/04 21:32:07;;;;;;;6.03;2.10;;;;;;;;;;5015468;28;88075;-75
2022/09/04 21:34:48;;;;;;;7.22;2.53;;;;;;;;;;4999841;28;88997;-75
2022/09/04 21:37:37;;;;;;;3.20;2.20;;;;;;;;;;5000517;28;88801;-75
2022/09/04 21:40:23;;;;;;;4.15;2.20;;;;;;;;;;5000549;28;88393;-75
2022/09/04 21:43:32;;;;;;;8.35;2.78;;;;;;;;;;4997636;28;88770;-74
2022/09/04 21:46:11;;;;;;;6.50;2.40;;;;;;;;;;4994687;28;88932;-75
2022/09/04 21:48:44;;;;;;;4.55;2.50;;;;;;;;;;4994432;28;87831;-72
2022/09/04 21:51:14;;;;;;;4.72;2.22;;;;;;;;;;4992635;28;89304;-72
2022/09/04 21:54:06;;;;;;;7.93;2.30;;;;;;;;;;4995984;28;89147;-72
2022/09/04 21:57:15;;;;;;;9.48;2.40;;;;;;;;;;4997119;28;88764;-72
2022/09/04 22:00:08;;;;;;;10.88;2.55;;;;;;;;;;5000026;28;90529;-72
2022/09/04 22:02:57;;;;;;;9.07;2.28;;;;;;;;;;4999357;28;88006;-72
2022/09/04 22:05:50;;;;;;;6.43;2.17;;;;;;;;;;5000023;28;88629;-72
2022/09/04 22:08:29;;;;;;;4.40;2.17;;;;;;;;;;5007710;28;88031;-72
2022/09/04 22:11:28;;;;;;;15.25;2.95;;;;;;;;;;4994545;28;89360;-73
2022/09/04 22:14:20;;;;;;;9.82;2.67;;;;;;;;;;5002576;28;88409;-72
2022/09/04 22:17:02;;;;;;;5.20;2.20;;;;;;;;;;5001852;28;88201;-72
2022/09/04 22:19:55;;;;;;;5.00;2.40;;;;;;;;;;4999588;28;87959;-73
2022/09/04 22:22:33;;;;;;;9.25;2.63;;;;;;;;;;4987127;28;88587;-72
2022/09/04 22:25:04;;;;;;;5.03;2.65;;;;;;;;;;4997940;28;89558;-72
2022/09/04 22:27:49;;;;;;;21.25;2.65;;;;;;;;;;5003687;28;89103;-72
2022/09/04 22:30:46;;;;;;;8.20;2.35;;;;;;;;;;4985942;28;88669;-72
2022/09/04 22:33:25;;;;;;;4.82;2.50;;;;;;;;;;4999727;28;88463;-72
2022/09/04 22:36:21;;;;;;;11.73;2.78;;;;;;;;;;5013947;28;89677;-72
2022/09/04 22:38:53;;;;;;;3.25;2.38;;;;;;;;;;4990153;28;88727;-72
2022/09/04 22:41:32;;;;;;;6.93;2.35;;;;;;;;;;4999139;28;87966;-72
2022/09/04 22:44:20;;;;;;;4.78;2.85;;;;;;;;;;4996076;28;89125;-73
2022/09/04 22:46:52;;;;;;;13.70;2.58;;;;;;;;;;5000023;28;88611;-73
2022/09/04 22:49:29;;;;;;;2.90;1.95;;;;;;;;;;4995919;28;88871;-74
2022/09/04 22:51:58;;;;;;;7.13;2.60;;;;;;;;;;5000050;28;89716;-74
2022/09/04 22:54:48;;;;;;;5.63;2.38;;;;;;;;;;4971711;28;89280;-74
2022/09/04 22:57:20;;;;;;;4.72;2.65;;;;;;;;;;4998229;28;88874;-75
2022/09/04 22:59:56;;;;;;;7.80;2.55;;;;;;;;;;4981192;28;88833;-74
2022/09/04 23:02:33;;;;;;;4.60;2.65;;;;;;;;;;5004614;28;88086;-75
2022/09/04 23:05:37;;;;;;;11.18;3.15;;;;;;;;;;5007172;28;89031;-75
2022/09/04 23:08:16;;;;;;;6.38;2.30;;;;;;;;;;4996325;28;88805;-75
2022/09/04 23:11:15;;;;;;;7.47;2.50;;;;;;;;;;4984495;28;87355;-74
2022/09/04 23:14:22;;;;;;;8.48;3.40;;;;;;;;;;4982813;28;88069;-75
2022/09/04 23:16:49;;;;;;;7.43;2.80;;;;;;;;;;4993928;28;89576;-75
2022/09/04 23:19:27;;;;;;;5.72;2.60;;;;;;;;;;4997963;28;88952;-75
2022/09/04 23:22:32;;;;;;;7.72;2.63;;;;;;;;;;4999610;28;88629;-74
2022/09/04 23:25:25;;;;;;;9.18;2.72;;;;;;;;;;4978874;28;88057;-74
2022/09/04 23:28:40;;;;;;;9.45;3.03;;;;;;;;;;5007486;28;88808;-74
2022/09/04 23:31:26;;;;;;;5.30;2.97;;;;;;;;;;4993972;28;89417;-74
2022/09/04 23:34:02;;;;;;;6.15;3.35;;;;;;;;;;5010127;28;89317;-74
2022/09/04 23:36:30;;;;;;;10.60;3.08;;;;;;;;;;5012242;28;88958;-74
2022/09/04 23:39:07;;;;;;;6.60;2.63;;;;;;;;;;5013680;28;88106;-73
2022/09/04 23:41:57;;;;;;;3.15;2.78;;;;;;;;;;5016465;28;88120;-74
2022/09/04 23:44:38;;;;;;;7.85;3.22;;;;;;;;;;5018639;28;88794;-73
2022/09/04 23:47:23;;;;;;;5.85;2.45;;;;;;;;;;4998893;28;88828;-73
2022/09/04 23:50:28;;;;;;;3.72;2.47;;;;;;;;;;5009612;28;89384;-73
2022/09/04 23:52:58;;;;;;;4.22;2.70;;;;;;;;;;4992767;28;89496;-73
2022/09/04 23:55:25;;;;;;;;;;;;;;;;;;4998648;28;89439;-74
